Linndale, Ohio
Current Conditions -  °F | °C
As of 7:51 AM on Thursday 30 Oct 2014 (Local Time) from KCLE Reporting Station
Light Rain Light Rain  
Wind Chill: 40°   Ceiling: 2900
Heat Index: 43°   Visibility: 10mi
Dew Point: 42°   Wind: 5mph
Humidity: 97%   Direction: 280°W
Pressure: 30.13"   Gusts: NA
Location:  41.4315°N, 81.8114°W
Report Text: KCLE 301151Z 28004KT 10SM -RA SCT025 OVC029 06/05 A3013 RMK AO2 SLP207 60008 70023 T00610056 51010 PNO $
Loading
Personal Weather Stations






























Interactive Weather Map
Tropical Storm Tracking
New forecast layout! Learn more

10-Day Weather Forecast

Advertisements
Track Severe Weather on mobile